Time;durP1;ratioP1;P1;durP2;ratioP2;P2;SDS_P1;SDS_P2;PMS_P1;PMS_P2;Temp;Humidity;BMP_temperature;BMP_pressure;BME280_temperature;BME280_humidity;BME280_pressure;Samples;Min_cycle;Max_cycle;Signal;HPM_P1;HPM_P2
2021/12/10 00:00:12;;;;;;;5.88;4.03;;;13.20;62.00;;;;;;5033117;28;20496;-74
2021/12/10 00:02:45;;;;;;;6.75;4.05;;;12.90;61.70;;;;;;5032749;28;20498;-74
2021/12/10 00:05:13;;;;;;;4.43;3.40;;;13.50;62.10;;;;;;5032953;28;20115;-74
2021/12/10 00:07:41;;;;;;;6.22;3.90;;;13.60;62.20;;;;;;5032754;28;20136;-74
2021/12/10 00:10:09;;;;;;;4.13;3.47;;;13.40;60.70;;;;;;5032678;28;20100;-74
2021/12/10 00:12:37;;;;;;;6.68;4.00;;;13.40;62.10;;;;;;5032836;28;20132;-74
2021/12/10 00:15:04;;;;;;;4.88;4.03;;;12.60;61.80;;;;;;5032692;28;20077;-74
2021/12/10 00:17:31;;;;;;;5.55;3.85;;;;;;;;;;5032072;28;20157;-74
2021/12/10 00:19:59;;;;;;;5.07;3.70;;;13.40;62.40;;;;;;5032033;28;20140;-74
2021/12/10 00:22:35;;;;;;;4.75;3.72;;;13.40;62.20;;;;;;5032481;28;20533;-74
2021/12/10 00:25:02;;;;;;;5.10;3.72;;;13.40;62.20;;;;;;5032488;28;20085;-74
2021/12/10 00:27:29;;;;;;;4.63;3.50;;;13.40;62.50;;;;;;5032173;28;20057;-74
2021/12/10 00:30:03;;;;;;;4.95;3.88;;;13.30;60.70;;;;;;5032665;28;20072;-74
2021/12/10 00:32:34;;;;;;;5.40;4.20;;;14.10;63.30;;;;;;5032571;28;20061;-74
2021/12/10 00:35:03;;;;;;;4.70;3.92;;;13.20;62.20;;;;;;5032466;28;20383;-74
2021/12/10 00:37:31;;;;;;;4.82;3.78;;;13.30;62.60;;;;;;5030974;28;20660;-74
2021/12/10 00:39:59;;;;;;;6.95;3.95;;;13.30;55.40;;;;;;5033359;28;20128;-74
2021/12/10 00:42:26;;;;;;;6.32;4.13;;;13.50;62.40;;;;;;5032246;28;20136;-74
2021/12/10 00:44:53;;;;;;;4.38;3.50;;;13.30;62.50;;;;;;5032480;28;20085;-74
2021/12/10 00:47:21;;;;;;;5.32;4.20;;;;;;;;;;5031769;28;20140;-73
2021/12/10 00:49:47;;;;;;;5.10;4.05;;;13.60;59.70;;;;;;5048754;28;20136;-74
2021/12/10 00:52:15;;;;;;;5.57;3.92;;;;;;;;;;5031859;28;20135;-74
2021/12/10 00:54:43;;;;;;;5.55;4.15;;;13.30;55.40;;;;;;5048757;28;20128;-74
2021/12/10 00:57:10;;;;;;;7.20;4.32;;;;;;;;;;5031380;28;20475;-74
2021/12/10 00:59:37;;;;;;;4.65;3.65;;;13.30;62.50;;;;;;5048842;28;20140;-74
2021/12/10 01:02:04;;;;;;;5.53;3.88;;;13.30;62.90;;;;;;5031859;28;20151;-74
2021/12/10 01:04:32;;;;;;;6.53;3.80;;;13.30;62.70;;;;;;5031854;28;20140;-74
2021/12/10 01:07:00;;;;;;;4.25;3.72;;;13.10;62.90;;;;;;5031530;28;20140;-74
2021/12/10 01:09:28;;;;;;;4.57;3.67;;;13.10;62.80;;;;;;5031319;28;20553;-74
2021/12/10 01:12:02;;;;;;;4.07;3.63;;;13.00;56.10;;;;;;5031733;28;20132;-74
2021/12/10 01:14:39;;;;;;;5.10;3.95;;;13.30;63.10;;;;;;5031682;28;20061;-74
2021/12/10 01:25:33;;;;;;;4.90;3.78;;;13.20;58.70;;;;;;5030455;28;20049;-74
2021/12/10 01:28:01;;;;;;;4.22;3.55;;;13.50;63.20;;;;;;5031251;28;20136;-74
2021/12/10 01:30:32;;;;;;;7.63;4.70;;;13.10;62.80;;;;;;5031402;28;20136;-74
2021/12/10 01:33:01;;;;;;;4.45;3.80;;;13.20;62.90;;;;;;5031357;28;20080;-74
2021/12/10 01:35:30;;;;;;;5.65;3.90;;;12.80;62.50;;;;;;5030955;28;20475;-74
2021/12/10 01:37:57;;;;;;;4.60;3.95;;;13.10;63.00;;;;;;5031032;28;20140;-74
2021/12/10 01:40:25;;;;;;;5.57;3.80;;;13.00;62.80;;;;;;5030707;28;20140;-74
2021/12/10 01:42:54;;;;;;;5.80;3.88;;;13.20;63.10;;;;;;5031013;28;20057;-74
2021/12/10 01:45:23;;;;;;;4.93;3.70;;;13.10;55.50;;;;;;5030968;28;20136;-74
2021/12/10 01:47:53;;;;;;;5.38;3.97;;;13.20;58.40;;;;;;5031040;28;20084;-74
2021/12/10 01:50:20;;;;;;;4.70;3.70;;;13.20;62.60;;;;;;5030831;28;20502;-74
2021/12/10 01:52:51;;;;;;;5.97;3.70;;;13.00;63.10;;;;;;5031259;28;20136;-74
2021/12/10 01:55:20;;;;;;;4.28;3.38;;;12.90;62.80;;;;;;5030785;28;20168;-74
2021/12/10 01:57:47;;;;;;;5.55;3.83;;;13.00;63.10;;;;;;5029935;28;20048;-74
2021/12/10 02:00:14;;;;;;;5.35;4.05;;;13.00;62.80;;;;;;5030997;28;20128;-74
2021/12/10 02:02:45;;;;;;;6.05;3.80;;;13.10;63.00;;;;;;5031027;28;20136;-74
2021/12/10 02:05:12;;;;;;;4.90;4.30;;;12.90;56.60;;;;;;5030732;28;20449;-74
2021/12/10 02:07:38;;;;;;;5.07;3.63;;;13.20;62.80;;;;;;5030362;28;20566;-74
2021/12/10 02:10:06;;;;;;;4.57;3.92;;;13.40;63.30;;;;;;5031804;28;20049;-74
2021/12/10 02:12:33;;;;;;;5.40;3.95;;;13.10;63.20;;;;;;5030580;28;20137;-74
2021/12/10 02:15:02;;;;;;;5.55;3.67;;;13.00;63.10;;;;;;5030797;28;20136;-74
2021/12/10 02:17:30;;;;;;;4.82;3.90;;;13.10;60.00;;;;;;5029869;28;20056;-74
2021/12/10 02:20:00;;;;;;;5.15;3.65;;;13.10;63.10;;;;;;5030683;28;20558;-74
2021/12/10 02:22:28;;;;;;;4.68;3.60;;;13.50;61.80;;;;;;5047307;28;20081;-74
2021/12/10 02:24:55;;;;;;;4.38;3.47;;;13.20;63.10;;;;;;5030341;28;20142;-74
2021/12/10 02:27:22;;;;;;;5.25;3.80;;;13.10;63.00;;;;;;5029911;28;20045;-74
2021/12/10 02:29:48;;;;;;;4.07;3.53;;;12.80;62.50;;;;;;5030611;28;20137;-73
2021/12/10 02:32:15;;;;;;;5.45;3.50;;;13.30;63.10;;;;;;5030358;28;20128;-74
2021/12/10 02:34:44;;;;;;;4.78;3.47;;;13.20;62.80;;;;;;5030234;28;20049;-74
2021/12/10 02:37:11;;;;;;;4.68;3.75;;;;;;;;;;5032531;28;20053;-74
2021/12/10 02:39:39;;;;;;;5.03;3.70;;;13.30;63.00;;;;;;5034579;28;20145;-74
2021/12/10 02:42:06;;;;;;;5.88;3.42;;;13.20;58.30;;;;;;5033868;28;20136;-74
2021/12/10 02:44:33;;;;;;;4.97;3.42;;;13.20;62.90;;;;;;5051005;28;20092;-74
2021/12/10 02:47:00;;;;;;;6.65;4.22;;;13.40;62.60;;;;;;5034116;28;20547;-74
2021/12/10 02:49:27;;;;;;;5.28;3.38;;;;;;;;;;5034309;28;20439;-74
2021/12/10 02:51:54;;;;;;;5.15;3.30;;;13.60;62.80;;;;;;5034377;28;20132;-74
2021/12/10 02:54:31;;;;;;;4.88;3.55;;;;;;;;;;5034375;28;20132;-74
2021/12/10 02:57:00;;;;;;;5.20;3.47;;;13.60;63.00;;;;;;5033552;28;20136;-74
2021/12/10 02:59:27;;;;;;;5.22;3.58;;;;;;;;;;5034070;28;20141;-74
2021/12/10 03:01:54;;;;;;;5.55;3.40;;;13.30;62.50;;;;;;5035370;28;20057;-73
2021/12/10 03:04:21;;;;;;;4.72;3.10;;;13.20;62.40;;;;;;5050539;28;20591;-73
2021/12/10 03:06:50;;;;;;;4.05;3.30;;;13.20;60.70;;;;;;5033816;28;20080;-74
2021/12/10 03:09:17;;;;;;;4.75;3.30;;;13.40;60.50;;;;;;5033695;28;20060;-73
2021/12/10 03:11:46;;;;;;;4.35;3.20;;;13.30;62.50;;;;;;5033323;28;20136;-73
2021/12/10 03:14:15;;;;;;;4.63;3.30;;;13.70;62.90;;;;;;5034071;28;20057;-73
2021/12/10 03:16:42;;;;;;;3.92;3.05;;;13.30;62.00;;;;;;5034236;28;20457;-73
2021/12/10 03:19:09;;;;;;;4.57;3.20;;;13.50;62.40;;;;;;5033902;28;20144;-73
2021/12/10 03:21:38;;;;;;;4.07;3.13;;;;;;;;;;5033743;28;20138;-74
2021/12/10 03:24:05;;;;;;;4.53;2.97;;;13.40;60.90;;;;;;5050590;28;20057;-73
2021/12/10 03:26:32;;;;;;;3.42;2.50;;;;;;;;;;5032979;28;20586;-75
2021/12/10 03:28:59;;;;;;;4.03;2.78;;;13.50;62.50;;;;;;5050420;28;20140;-73
2021/12/10 03:31:27;;;;;;;4.15;3.00;;;13.40;62.40;;;;;;5033280;28;20128;-73
2021/12/10 03:33:54;;;;;;;3.50;2.70;;;13.50;62.50;;;;;;5034666;28;20080;-73
2021/12/10 03:36:22;;;;;;;4.35;3.13;;;13.60;62.40;;;;;;5033072;28;20087;-73
2021/12/10 03:38:49;;;;;;;4.47;2.80;;;;;;;;;;5033245;28;20084;-74
2021/12/10 03:41:16;;;;;;;4.18;2.70;;;;;;;;;;5033120;28;20083;-73
2021/12/10 03:43:44;;;;;;;4.70;2.80;;;13.40;62.30;;;;;;5033300;28;20465;-73
2021/12/10 03:46:11;;;;;;;3.67;2.60;;;;;;;;;;5033267;28;20057;-74
2021/12/10 03:48:41;;;;;;;3.50;2.60;;;13.70;58.40;;;;;;5049084;28;20056;-74
2021/12/10 03:51:09;;;;;;;3.33;2.67;;;13.60;55.10;;;;;;5033299;28;20053;-74
2021/12/10 03:53:36;;;;;;;4.97;2.85;;;;;;;;;;5033171;28;20136;-73
2021/12/10 03:56:05;;;;;;;3.72;2.60;;;13.60;55.10;;;;;;5049658;28;20128;-75
2021/12/10 03:58:32;;;;;;;3.28;2.70;;;13.50;62.10;;;;;;5032488;28;20077;-73
2021/12/10 04:00:58;;;;;;;4.22;2.80;;;13.80;62.30;;;;;;5032993;28;20060;-73
2021/12/10 04:03:27;;;;;;;4.43;2.75;;;13.50;60.70;;;;;;5032704;28;20132;-73
2021/12/10 04:05:55;;;;;;;3.05;2.55;;;13.50;62.10;;;;;;5032713;28;20049;-74
2021/12/10 04:08:21;;;;;;;3.67;2.65;;;13.60;62.10;;;;;;5032923;28;20141;-73
2021/12/10 04:10:48;;;;;;;3.83;2.83;;;13.70;62.20;;;;;;5032917;28;20203;-73
2021/12/10 04:13:15;;;;;;;4.20;3.00;;;14.40;56.40;;;;;;5032714;28;20085;-74
2021/12/10 04:15:43;;;;;;;3.65;2.58;;;;;;;;;;5032508;28;20136;-73
2021/12/10 04:18:10;;;;;;;4.10;2.83;;;13.70;55.00;;;;;;5049217;28;20195;-74
2021/12/10 04:20:36;;;;;;;3.15;2.55;;;13.70;62.30;;;;;;5032964;28;20136;-73
2021/12/10 04:23:07;;;;;;;4.72;2.67;;;13.60;55.00;;;;;;5032660;28;20148;-75
2021/12/10 04:25:34;;;;;;;3.38;2.55;;;13.60;61.10;;;;;;5032340;28;20096;-74
2021/12/10 04:28:07;;;;;;;4.13;2.78;;;13.80;62.20;;;;;;5033630;28;20128;-73
2021/12/10 04:30:37;;;;;;;4.50;2.78;;;;;;;;;;5032523;28;20053;-74
2021/12/10 04:33:04;;;;;;;3.72;2.70;;;13.50;59.70;;;;;;5032468;28;20063;-73
2021/12/10 04:35:31;;;;;;;4.28;3.15;;;13.60;62.20;;;;;;5048574;28;20144;-73
2021/12/10 04:37:58;;;;;;;4.15;2.95;;;;;;;;;;5031992;28;20128;-73
2021/12/10 04:40:26;;;;;;;3.88;2.75;;;13.80;62.10;;;;;;5032371;28;20132;-73
2021/12/10 04:42:53;;;;;;;4.03;2.80;;;13.50;62.00;;;;;;5032370;28;20053;-74
2021/12/10 04:45:20;;;;;;;5.57;2.90;;;13.70;62.10;;;;;;5032022;28;20132;-73
2021/12/10 04:47:47;;;;;;;4.00;2.80;;;;;;;;;;5031843;28;20045;-74
2021/12/10 04:50:14;;;;;;;5.03;2.67;;;13.70;62.30;;;;;;5032019;28;20168;-73
2021/12/10 04:52:41;;;;;;;4.65;3.08;;;13.80;62.30;;;;;;5032190;28;20443;-73
2021/12/10 04:55:09;;;;;;;3.95;2.97;;;13.60;62.00;;;;;;5031909;28;20055;-73
2021/12/10 04:57:38;;;;;;;3.45;2.80;;;13.40;62.00;;;;;;5031587;28;20128;-73
2021/12/10 05:00:05;;;;;;;4.05;2.90;;;13.50;57.90;;;;;;5031242;28;20140;-74
2021/12/10 05:02:33;;;;;;;4.32;2.90;;;13.30;62.00;;;;;;5032121;28;20555;-73
2021/12/10 05:05:00;;;;;;;3.63;2.95;;;13.60;62.40;;;;;;5031538;28;20112;-73
2021/12/10 05:07:30;;;;;;;4.85;2.92;;;;;;;;;;5031132;28;20050;-73
2021/12/10 05:09:57;;;;;;;3.85;2.92;;;13.80;62.40;;;;;;5048464;28;20553;-74
2021/12/10 05:12:23;;;;;;;4.97;2.92;;;13.70;62.30;;;;;;5031826;28;20457;-73
2021/12/10 05:14:58;;;;;;;4.00;2.80;;;13.70;55.00;;;;;;5031820;28;20561;-74
2021/12/10 05:17:27;;;;;;;5.40;3.20;;;;;;;;;;5031176;28;20073;-73
2021/12/10 05:19:54;;;;;;;3.33;2.70;;;13.30;62.00;;;;;;5048113;28;20053;-73
2021/12/10 05:22:21;;;;;;;3.70;2.97;;;13.60;62.10;;;;;;5030999;28;20076;-74
2021/12/10 05:24:48;;;;;;;3.70;2.75;;;;;;;;;;5031521;28;20550;-74
2021/12/10 05:27:15;;;;;;;3.78;2.80;;;;;;;;;;5031068;28;20140;-73
2021/12/10 05:29:42;;;;;;;3.85;2.50;;;13.80;62.40;;;;;;5031495;28;20133;-73
2021/12/10 05:32:12;;;;;;;3.10;2.80;;;13.70;55.00;;;;;;5031195;28;20171;-73
2021/12/10 05:34:40;;;;;;;4.38;3.10;;;;;;;;;;5047863;28;20061;-73
2021/12/10 05:37:07;;;;;;;4.15;2.90;;;13.70;62.30;;;;;;5030995;28;20053;-75
2021/12/10 05:39:34;;;;;;;3.90;2.80;;;13.60;62.00;;;;;;5030790;28;20144;-73
2021/12/10 05:42:03;;;;;;;3.85;2.80;;;;;;;;;;5030783;28;20578;-73
2021/12/10 05:44:30;;;;;;;4.72;2.90;;;;;;;;;;5030953;28;20053;-74
2021/12/10 05:46:58;;;;;;;4.00;2.70;;;13.60;62.10;;;;;;5030940;28;20136;-73
2021/12/10 05:49:27;;;;;;;4.28;3.05;;;13.80;62.30;;;;;;5030988;28;20132;-74
2021/12/10 05:51:54;;;;;;;3.78;2.58;;;13.60;60.70;;;;;;5030795;28;20144;-73
2021/12/10 05:54:21;;;;;;;3.45;2.70;;;13.80;62.10;;;;;;5031345;28;20144;-74
2021/12/10 05:56:47;;;;;;;3.78;2.72;;;13.80;62.10;;;;;;5030449;28;20085;-73
2021/12/10 05:59:14;;;;;;;4.90;2.83;;;13.60;59.20;;;;;;5047061;28;20045;-74
2021/12/10 06:01:41;;;;;;;3.88;2.85;;;;;;;;;;5047777;28;20144;-73
2021/12/10 06:04:08;;;;;;;4.28;2.90;;;;;;;;;;5030485;28;20081;-75
2021/12/10 06:06:37;;;;;;;4.05;2.80;;;13.80;62.20;;;;;;5030655;28;20553;-74
2021/12/10 06:09:05;;;;;;;3.55;2.72;;;13.80;62.00;;;;;;5030578;28;20132;-73
2021/12/10 06:11:32;;;;;;;2.90;2.40;;;;;;;;;;5030485;28;20136;-76
2021/12/10 06:13:59;;;;;;;3.35;2.50;;;13.80;62.30;;;;;;5030488;28;20151;-73
2021/12/10 06:16:26;;;;;;;4.38;2.42;;;13.70;62.00;;;;;;5030474;28;20084;-73
2021/12/10 06:18:53;;;;;;;3.22;2.78;;;13.80;60.40;;;;;;5030241;28;20128;-74
2021/12/10 06:21:20;;;;;;;3.15;2.45;;;13.60;59.40;;;;;;5030560;28;20487;-73
2021/12/10 06:23:48;;;;;;;3.08;2.53;;;13.70;58.10;;;;;;5030722;28;20569;-74
2021/12/10 06:26:15;;;;;;;3.40;2.58;;;13.70;56.50;;;;;;5030073;28;20475;-74
2021/12/10 06:28:44;;;;;;;3.45;2.33;;;;;;;;;;5030123;28;20144;-73
2021/12/10 06:31:11;;;;;;;2.97;2.42;;;;;;;;;;5047430;28;20065;-74
2021/12/10 06:33:38;;;;;;;3.25;2.58;;;13.70;61.90;;;;;;5047124;28;20136;-73
2021/12/10 06:36:06;;;;;;;3.10;2.33;;;;;;;;;;5030453;28;20491;-75
2021/12/10 06:38:34;;;;;;;3.00;2.30;;;14.00;62.30;;;;;;5046556;28;20077;-73
2021/12/10 06:41:02;;;;;;;3.25;2.33;;;13.50;62.00;;;;;;5030010;28;20057;-73
2021/12/10 06:43:29;;;;;;;3.00;2.10;;;13.60;61.90;;;;;;5030302;28;20132;-73
2021/12/10 06:45:55;;;;;;;2.80;2.17;;;13.80;61.90;;;;;;5030218;28;20133;-73
2021/12/10 06:48:23;;;;;;;3.05;2.55;;;13.40;61.70;;;;;;5030339;28;20128;-73
2021/12/10 06:50:52;;;;;;;2.80;2.22;;;13.70;54.90;;;;;;5030285;28;20149;-73
2021/12/10 06:53:20;;;;;;;3.53;2.30;;;13.50;61.80;;;;;;5029915;28;20083;-73
2021/12/10 06:55:46;;;;;;;3.20;2.20;;;13.60;62.10;;;;;;5029907;28;20057;-73
2021/12/10 06:58:15;;;;;;;3.28;2.00;;;13.70;54.90;;;;;;5046778;28;20584;-73
2021/12/10 07:00:44;;;;;;;2.50;2.10;;;13.70;61.80;;;;;;5030423;28;20128;-73
2021/12/10 07:03:11;;;;;;;3.28;2.00;;;13.60;62.10;;;;;;5030066;28;20049;-73
2021/12/10 07:05:38;;;;;;;2.65;2.08;;;;;;;;;;5046163;28;20128;-73
2021/12/10 07:08:05;;;;;;;2.58;2.03;;;14.00;62.30;;;;;;5030336;28;20140;-73
2021/12/10 07:10:32;;;;;;;2.60;2.08;;;13.60;61.50;;;;;;5030089;28;20129;-73
2021/12/10 07:13:00;;;;;;;3.42;2.17;;;13.70;62.20;;;;;;5030690;28;20112;-72
2021/12/10 07:15:28;;;;;;;2.53;1.75;;;13.60;62.10;;;;;;5029961;28;20053;-72
2021/12/10 07:17:55;;;;;;;2.70;2.08;;;13.80;62.00;;;;;;5029899;28;20056;-72
2021/12/10 07:20:23;;;;;;;2.70;2.20;;;13.60;61.80;;;;;;5030181;28;20128;-72
2021/12/10 07:22:50;;;;;;;2.38;1.90;;;;;;;;;;5032168;28;20507;-72
2021/12/10 07:25:17;;;;;;;2.58;1.80;;;13.60;61.90;;;;;;5050497;28;20144;-72
2021/12/10 07:27:44;;;;;;;2.45;1.92;;;;;;;;;;5033539;28;20135;-74
2021/12/10 07:30:11;;;;;;;2.63;2.00;;;13.70;61.80;;;;;;5033998;28;20140;-73
2021/12/10 07:32:39;;;;;;;2.15;1.90;;;13.70;54.70;;;;;;5033818;28;20060;-75
2021/12/10 07:35:08;;;;;;;2.70;2.03;;;13.80;54.80;;;;;;5033844;28;20141;-76
2021/12/10 07:37:35;;;;;;;3.33;2.08;;;;;;;;;;5049966;28;20049;-75
2021/12/10 07:40:01;;;;;;;2.70;2.17;;;13.80;61.60;;;;;;5033685;28;20140;-73
2021/12/10 07:42:28;;;;;;;2.40;1.80;;;13.80;61.60;;;;;;5033211;28;20170;-73
2021/12/10 07:44:56;;;;;;;2.75;1.80;;;13.70;60.40;;;;;;5033509;28;20132;-74
2021/12/10 07:47:23;;;;;;;2.05;1.70;;;;;;;;;;5033320;28;20049;-75
2021/12/10 07:49:53;;;;;;;2.20;1.67;;;13.90;61.80;;;;;;5033834;28;20168;-73
2021/12/10 07:52:23;;;;;;;2.53;1.60;;;14.00;61.80;;;;;;5033320;28;20061;-73
2021/12/10 07:54:50;;;;;;;2.10;1.77;;;;;;;;;;5033647;28;20137;-73
2021/12/10 07:57:18;;;;;;;4.45;2.10;;;14.00;58.10;;;;;;5032643;28;20136;-73
2021/12/10 07:59:45;;;;;;;4.30;1.90;;;13.80;57.90;;;;;;5066440;28;20067;-73
2021/12/10 08:02:13;;;;;;;9.10;2.60;;;14.20;61.60;;;;;;5032804;28;20228;-73
2021/12/10 08:04:40;;;;;;;12.38;3.08;;;;;;;;;;5033776;28;20128;-73
2021/12/10 08:07:08;;;;;;;8.82;3.35;;;14.20;61.20;;;;;;5032693;28;20136;-73
2021/12/10 08:09:35;;;;;;;11.40;2.92;;;15.00;61.90;;;;;;5033356;28;20132;-73
2021/12/10 08:12:01;;;;;;;5.57;2.85;;;14.30;54.40;;;;;;5033156;28;20140;-74
2021/12/10 08:14:28;;;;;;;4.47;2.20;;;14.30;61.10;;;;;;5033063;28;20085;-73
2021/12/10 08:16:55;;;;;;;7.03;2.67;;;15.30;61.40;;;;;;5033028;28;20152;-73
2021/12/10 08:19:22;;;;;;;6.60;2.38;;;14.50;60.90;;;;;;5032660;28;20056;-73
2021/12/10 08:21:49;;;;;;;5.13;2.40;;;14.40;60.60;;;;;;5032386;28;20549;-73
2021/12/10 08:24:17;;;;;;;3.60;2.08;;;14.50;53.70;;;;;;5032338;28;20132;-73
2021/12/10 08:26:44;;;;;;;4.13;2.28;;;;;;;;;;5040918;28;20517;-74
2021/12/10 08:29:12;;;;;;;3.53;2.10;;;14.60;60.80;;;;;;5029840;28;20292;-73
2021/12/10 08:31:39;;;;;;;5.30;2.13;;;14.60;60.70;;;;;;5031780;28;20057;-73
2021/12/10 08:34:07;;;;;;;5.25;2.38;;;;;;;;;;5031183;28;20505;-73
2021/12/10 08:36:34;;;;;;;4.95;2.20;;;14.70;56.30;;;;;;5032494;28;20053;-73
2021/12/10 08:39:02;;;;;;;5.28;2.40;;;14.10;60.30;;;;;;5032077;28;20148;-73
2021/12/10 08:41:32;;;;;;;6.57;2.20;;;14.80;60.70;;;;;;5029303;28;20517;-73
2021/12/10 08:43:59;;;;;;;4.78;1.90;;;14.80;60.30;;;;;;5032222;28;20064;-73
2021/12/10 08:46:26;;;;;;;5.13;2.10;;;14.20;60.50;;;;;;5031871;28;20083;-73
2021/12/10 08:48:53;;;;;;;4.32;2.08;;;14.80;60.80;;;;;;5032164;28;20128;-73
2021/12/10 08:51:21;;;;;;;4.38;2.00;;;14.70;53.80;;;;;;5032329;28;20151;-75
2021/12/10 08:53:49;;;;;;;3.75;1.75;;;15.60;61.20;;;;;;5032530;28;20145;-76
2021/12/10 08:56:15;;;;;;;4.88;2.00;;;14.80;61.00;;;;;;5032172;28;20128;-72
2021/12/10 08:58:46;;;;;;;4.07;1.90;;;14.10;60.30;;;;;;5030784;28;20051;-73
2021/12/10 09:01:22;;;;;;;8.65;2.17;;;14.80;53.80;;;;;;5029155;28;20120;-73
2021/12/10 09:03:51;;;;;;;3.00;2.03;;;14.90;60.90;;;;;;5031792;28;20054;-73
2021/12/10 09:06:18;;;;;;;3.55;2.28;;;14.20;60.60;;;;;;5031692;28;20132;-73
2021/12/10 09:08:45;;;;;;;2.97;1.90;;;;;;;;;;5031656;28;20091;-73
2021/12/10 09:11:12;;;;;;;3.03;1.95;;;15.00;60.80;;;;;;5031723;28;20174;-73
2021/12/10 09:13:39;;;;;;;3.67;1.92;;;14.90;60.90;;;;;;5031485;28;20120;-73
2021/12/10 09:16:09;;;;;;;3.55;1.70;;;14.70;60.80;;;;;;5030917;28;20060;-73
2021/12/10 09:18:41;;;;;;;2.90;1.92;;;15.00;61.40;;;;;;5031648;28;20502;-73
2021/12/10 09:21:09;;;;;;;2.90;1.70;;;15.00;61.20;;;;;;5031550;28;20522;-72
2021/12/10 09:23:36;;;;;;;5.00;2.00;;;14.60;60.90;;;;;;5030996;28;20056;-73
2021/12/10 09:26:05;;;;;;;3.35;1.92;;;14.90;54.30;;;;;;5031148;28;20473;-73
2021/12/10 09:28:32;;;;;;;4.90;2.10;;;14.70;60.90;;;;;;5031741;28;20132;-73
2021/12/10 09:31:00;;;;;;;3.92;2.00;;;14.90;61.20;;;;;;5031240;28;20144;-73
2021/12/10 09:33:28;;;;;;;3.15;1.85;;;14.30;60.40;;;;;;5031381;28;20136;-73
2021/12/10 09:35:55;;;;;;;2.67;1.80;;;15.20;61.20;;;;;;5030892;28;20132;-73
2021/12/10 09:38:24;;;;;;;2.67;1.90;;;14.90;60.80;;;;;;5031494;28;20142;-73
2021/12/10 09:40:53;;;;;;;2.78;1.80;;;14.50;60.50;;;;;;5031186;28;20132;-73
2021/12/10 09:43:20;;;;;;;3.05;1.80;;;;;;;;;;5031041;28;20053;-74
2021/12/10 09:45:47;;;;;;;3.95;2.15;;;14.90;60.70;;;;;;5031022;28;20465;-73
2021/12/10 09:48:15;;;;;;;4.10;2.00;;;15.00;60.60;;;;;;5031166;28;20572;-74
2021/12/10 09:50:47;;;;;;;2.13;1.73;;;15.70;61.10;;;;;;5031255;28;20566;-73
2021/12/10 09:53:14;;;;;;;4.20;1.98;;;;;;;;;;5031076;28;20433;-74
2021/12/10 09:55:41;;;;;;;2.80;2.00;;;15.10;60.50;;;;;;5029942;28;20144;-75
2021/12/10 09:58:07;;;;;;;3.53;1.73;;;14.30;60.20;;;;;;5031627;28;20125;-74
2021/12/10 10:00:36;;;;;;;4.80;1.95;;;15.20;60.70;;;;;;5030278;28;20128;-75
2021/12/10 10:03:03;;;;;;;3.15;1.77;;;;;;;;;;5030749;28;20183;-74
2021/12/10 10:05:31;;;;;;;3.25;1.70;;;15.00;53.70;;;;;;5030868;28;20126;-76
2021/12/10 10:08:01;;;;;;;2.20;1.50;;;15.00;60.80;;;;;;5047858;28;20084;-74
2021/12/10 10:10:28;;;;;;;3.58;1.73;;;14.90;60.80;;;;;;5030046;28;20598;-75
2021/12/10 10:12:56;;;;;;;3.33;1.58;;;14.90;60.70;;;;;;5036986;28;20097;-74
2021/12/10 10:15:25;;;;;;;3.05;1.60;;;14.90;53.80;;;;;;5030201;28;20414;-77
2021/12/10 10:17:52;;;;;;;2.22;1.70;;;;;;;;;;5030855;28;20463;-74
2021/12/10 10:20:19;;;;;;;4.88;1.48;;;15.00;60.90;;;;;;5029934;28;20537;-74
2021/12/10 10:22:46;;;;;;;2.13;1.45;;;15.10;60.80;;;;;;5030563;28;20057;-74
2021/12/10 10:25:15;;;;;;;2.75;1.58;;;15.70;61.00;;;;;;5030398;28;20063;-74
2021/12/10 10:27:42;;;;;;;2.78;1.50;;;15.00;60.80;;;;;;5030357;28;20136;-74
2021/12/10 10:30:12;;;;;;;3.60;1.65;;;15.10;60.90;;;;;;5030705;28;20124;-75
2021/12/10 10:32:43;;;;;;;2.30;1.60;;;14.50;60.50;;;;;;5029120;28;20080;-74
2021/12/10 10:35:13;;;;;;;2.40;1.55;;;15.00;60.70;;;;;;5030011;28;20057;-75
2021/12/10 10:37:40;;;;;;;2.13;1.40;;;15.50;61.20;;;;;;5017440;28;20502;-74
2021/12/10 10:40:08;;;;;;;2.90;1.38;;;15.00;53.90;;;;;;5029722;28;20141;-76
2021/12/10 10:42:37;;;;;;;2.83;1.73;;;14.90;54.50;;;;;;5030089;28;20144;-76
2021/12/10 10:45:08;;;;;;;2.45;1.60;;;15.00;60.60;;;;;;5030116;28;20136;-74
2021/12/10 10:47:34;;;;;;;3.38;1.52;;;14.20;60.40;;;;;;5029476;28;20089;-73
2021/12/10 10:50:07;;;;;;;2.25;1.58;;;15.10;60.90;;;;;;5029711;28;20076;-74
2021/12/10 10:52:38;;;;;;;2.08;1.55;;;15.00;53.80;;;;;;5043226;28;20163;-73
2021/12/10 10:55:16;;;;;;;3.22;1.45;;;15.00;60.60;;;;;;5030390;28;20132;-74
2021/12/10 10:57:51;;;;;;;2.58;1.55;;;15.30;60.70;;;;;;5031596;28;20553;-74
2021/12/10 11:00:22;;;;;;;2.25;1.65;;;14.40;60.30;;;;;;5034143;28;20072;-74
2021/12/10 11:02:52;;;;;;;3.25;1.40;;;15.00;53.70;;;;;;5033806;28;20136;-73
2021/12/10 11:05:20;;;;;;;2.30;1.60;;;14.40;59.90;;;;;;5033707;28;20061;-74
2021/12/10 11:07:49;;;;;;;2.67;1.40;;;15.10;53.70;;;;;;5033723;28;20049;-73
2021/12/10 11:10:20;;;;;;;1.80;1.30;;;15.20;60.30;;;;;;5033926;28;20041;-73
2021/12/10 11:12:49;;;;;;;2.13;1.50;;;15.10;60.40;;;;;;5033808;28;20057;-73
2021/12/10 11:15:16;;;;;;;1.90;1.40;;;14.90;60.30;;;;;;5033711;28;20137;-74
2021/12/10 11:17:44;;;;;;;2.13;1.40;;;15.10;60.40;;;;;;5033959;28;20084;-74
2021/12/10 11:20:14;;;;;;;1.95;1.40;;;15.10;60.50;;;;;;5033957;28;20124;-74
2021/12/10 11:22:50;;;;;;;1.90;1.40;;;15.20;60.10;;;;;;5032754;28;20083;-73
2021/12/10 11:25:19;;;;;;;2.25;1.35;;;14.50;60.20;;;;;;5033354;28;20455;-74
2021/12/10 11:27:46;;;;;;;1.98;1.20;;;15.10;60.60;;;;;;5065475;28;20054;-73
2021/12/10 11:30:16;;;;;;;2.10;1.33;;;15.50;60.50;;;;;;5032686;28;20061;-74
2021/12/10 11:32:44;;;;;;;2.10;1.60;;;15.20;53.50;;;;;;5031842;28;20133;-75
2021/12/10 11:35:13;;;;;;;2.58;1.50;;;14.60;59.80;;;;;;5033744;28;20084;-77
2021/12/10 11:37:49;;;;;;;1.88;1.30;;;14.40;59.60;;;;;;5033860;28;20057;-75
2021/12/10 11:40:32;;;;;;;2.47;1.42;;;15.70;60.70;;;;;;5033103;28;20132;-74
2021/12/10 11:43:04;;;;;;;2.72;1.30;;;;;;;;;;5013717;28;20064;-75
2021/12/10 11:45:41;;;;;;;2.30;1.52;;;15.20;60.60;;;;;;5014672;28;20056;-75
2021/12/10 11:48:11;;;;;;;1.95;1.30;;;15.90;60.80;;;;;;5033270;28;20091;-74
2021/12/10 11:50:40;;;;;;;3.28;1.35;;;15.30;60.90;;;;;;5033548;28;20057;-74
2021/12/10 11:53:09;;;;;;;4.95;1.35;;;15.20;54.00;;;;;;5033646;28;20085;-74
2021/12/10 11:55:35;;;;;;;2.35;1.35;;;15.20;60.80;;;;;;5032707;28;20148;-74
2021/12/10 11:58:03;;;;;;;1.45;1.20;;;15.20;60.80;;;;;;5032680;28;20065;-74
2021/12/10 12:00:33;;;;;;;4.22;1.50;;;15.20;60.40;;;;;;5032377;28;20410;-74
2021/12/10 12:03:01;;;;;;;2.03;1.50;;;15.10;60.80;;;;;;5032977;28;20141;-74
2021/12/10 12:05:29;;;;;;;2.83;1.45;;;15.20;54.10;;;;;;5032212;28;20076;-74
2021/12/10 12:07:56;;;;;;;2.58;1.40;;;14.80;60.60;;;;;;5031352;28;20136;-74
2021/12/10 12:10:26;;;;;;;3.55;1.30;;;15.20;60.80;;;;;;5033021;28;20541;-74
2021/12/10 12:12:55;;;;;;;2.25;1.50;;;15.10;60.80;;;;;;5033080;28;20085;-73
2021/12/10 12:15:27;;;;;;;1.67;1.30;;;15.10;60.90;;;;;;5032439;28;20560;-77
2021/12/10 12:17:56;;;;;;;2.75;1.50;;;15.10;60.80;;;;;;5032818;28;20059;-73
2021/12/10 12:20:39;;;;;;;3.05;1.60;;;15.10;61.00;;;;;;5031659;28;20474;-73
2021/12/10 12:25:56;;;;;;;2.00;1.27;;;14.80;60.70;;;;;;5029020;28;20573;-73
2021/12/10 12:28:24;;;;;;;3.22;1.42;;;14.10;60.60;;;;;;5032095;28;20140;-73
2021/12/10 12:30:57;;;;;;;1.83;1.42;;;15.00;60.80;;;;;;5057240;28;20073;-73
2021/12/10 12:33:26;;;;;;;2.85;1.70;;;15.00;60.70;;;;;;5037720;28;20064;-74
2021/12/10 12:35:53;;;;;;;6.15;1.77;;;;;;;;;;5045592;28;20131;-75
2021/12/10 12:38:23;;;;;;;3.00;1.55;;;14.90;54.30;;;;;;5037422;28;20081;-76
2021/12/10 12:41:07;;;;;;;10.30;2.28;;;14.90;60.90;;;;;;5032093;28;20111;-74
2021/12/10 12:43:34;;;;;;;3.78;1.70;;;14.90;61.00;;;;;;5032864;28;20683;-73
2021/12/10 12:46:04;;;;;;;3.15;1.50;;;14.80;60.80;;;;;;5032409;28;20136;-74
2021/12/10 12:48:32;;;;;;;2.40;1.48;;;14.80;60.70;;;;;;5032581;28;20136;-75
2021/12/10 12:51:02;;;;;;;4.40;1.60;;;14.40;60.80;;;;;;5032533;28;20088;-74
2021/12/10 12:53:33;;;;;;;3.45;1.60;;;14.30;56.70;;;;;;5032290;28;20179;-74
2021/12/10 12:56:03;;;;;;;2.05;1.45;;;14.50;61.00;;;;;;5031924;28;20092;-72
2021/12/10 12:58:31;;;;;;;2.20;1.33;;;14.60;61.20;;;;;;5031540;28;20457;-73
2021/12/10 13:01:05;;;;;;;2.60;1.50;;;14.40;60.80;;;;;;5030963;28;20469;-75
2021/12/10 13:03:37;;;;;;;2.28;1.40;;;14.50;61.30;;;;;;5031252;28;20041;-73
2021/12/10 13:06:10;;;;;;;2.35;1.45;;;14.50;61.30;;;;;;5030548;28;20053;-73
2021/12/10 13:08:39;;;;;;;1.85;1.33;;;;;;;;;;5029518;28;20414;-74
2021/12/10 13:11:09;;;;;;;2.55;1.45;;;14.60;58.70;;;;;;5046272;28;20077;-74
2021/12/10 13:13:39;;;;;;;2.47;1.55;;;14.80;61.80;;;;;;5015165;28;20060;-73
2021/12/10 13:16:08;;;;;;;2.08;1.40;;;14.60;61.70;;;;;;5032169;28;20057;-73
2021/12/10 13:18:37;;;;;;;2.92;1.42;;;14.70;61.90;;;;;;5032675;28;20045;-73